K1KOF Weather Reports


time (UTC)temp
F
wind
direction
speed
knots
gust
knots
rain 1hr
in
rain 24hr
in
rain mn
in
humidity
%
barometer
mb
20260509013231 61 20 0.0 1.7 0.00 0.00 0.00 93 1025.3
20260509012728 61 14 0.9 1.7 0.00 0.00 0.00 94 1025.1
20260509012224 61 14 0.0 1.7 0.00 0.00 0.00 94 1025.0
20260509011722 62 84 0.9 1.7 0.00 0.00 0.00 94 1025.1
20260509011220 62 23 0.0 0.9 0.00 0.00 0.00 94 1025.1
20260509010717 62 90 0.0 0.9 0.00 0.00 0.00 94 1024.9
20260509010213 62 105 0.9 1.7 0.00 0.00 0.00 93 1024.7
20260509005711 62 32 1.7 1.7 0.00 0.00 0.00 93 1024.9
20260509005208 62 66 0.9 1.7 0.00 0.00 0.00 93 1024.9
20260509004702 62 81 0.0 0.9 0.00 0.00 0.00 93 1024.6
20260509004200 63 23 0.0 1.7 0.00 0.00 0.00 92 1024.6
20260509003658 63 66 0.0 1.7 0.00 0.00 0.00 92 1024.7
20260509003155 63 90 0.9 1.7 0.00 0.00 0.00 91 1024.8
20260509002653 63 49 0.0 1.7 0.00 0.00 0.00 91 1024.8
20260509002150 64 81 0.0 1.7 0.00 0.00 0.00 91 1024.9
20260509001648 64 117 0.9 1.7 0.00 0.00 0.00 90 1024.9
20260509001143 65 63 0.9 1.7 0.00 0.00 0.00 90 1024.8
20260509000641 65 105 0.9 1.7 0.00 0.00 0.00 89 1024.5
20260509000138 65 99 0.0 0.9 0.00 0.00 0.00 88 1024.4
20260508235635 65 90 0.0 0.0 0.00 0.00 0.00 87 1024.6
20260508235132 66 90 0.0 0.0 0.00 0.00 0.00 87 1024.2
20260508234629 66 106 0.9 0.9 0.00 0.00 0.00 87 1024.4
20260508234125 66 90 0.0 1.7 0.00 0.00 0.00 86 1024.4
20260508233625 67 105 0.9 1.7 0.00 0.00 0.00 85 1024.3
20260508233122 67 74 0.0 0.9 0.00 0.00 0.00 84 1024.3
20260508232619 67 29 0.0 0.0 0.00 0.00 0.00 83 1024.3
20260508232116 67 29 0.0 1.7 0.00 0.00 0.00 82 1024.5
20260508231614 68 103 0.9 1.7 0.00 0.00 0.00 80 1024.3
20260508231110 68 23 0.0 0.9 0.00 0.00 0.00 79 1024.4
20260508230607 68 83 0.9 1.7 0.00 0.00 0.00 77 1024.6
20260508225601 69 90 0.0 0.9 0.00 0.00 0.00 76 1024.3
20260508225057 69 114 0.9 1.7 0.00 0.00 0.00 73 1024.7
20260508224555 69 23 0.0 0.9 0.00 0.00 0.00 71 1024.8
20260508224052 69 188 0.0 0.0 0.00 0.00 0.00 71 1024.6
20260508223550 69 12 0.9 1.7 0.00 0.00 0.00 69 1024.4
20260508223047 69 0 0.0 0.0 0.00 0.00 0.00 68 1024.6
20260508222544 70 40 0.0 1.7 0.00 0.00 0.00 68 1024.6
20260508222041 70 99 0.0 0.0 0.00 0.00 0.00 66 1024.5
20260508221537 70 15 0.9 0.9 0.00 0.00 0.00 62 1024.3
20260508221033 70 0 0.0 0.0 0.00 0.00 0.00 63 1024.3
20260508220530 71 29 0.0 0.0 0.00 0.00 0.00 63 1024.6
20260508220026 71 151 0.9 1.7 0.00 0.00 0.00 55 1024.5
20260508215524 70 148 1.7 3.5 0.00 0.00 0.00 58 1024.3
20260508215020 70 152 2.6 3.5 0.00 0.00 0.00 57 1024.2
20260508214518 71 135 2.6 2.6 0.00 0.00 0.00 55 1024.4
20260508214014 71 162 0.9 1.7 0.00 0.00 0.00 54 1024.6
20260508213512 71 162 1.7 2.6 0.00 0.00 0.00 53 1024.7
20260508213007 71 190 2.6 2.6 0.00 0.00 0.00 53 1024.6
20260508212504 71 106 0.9 2.6 0.00 0.00 0.00 52 1024.6
20260508212000 71 120 0.9 2.6 0.00 0.00 0.00 54 1024.4
20260508211455 71 188 1.7 3.5 0.00 0.00 0.00 58 1024.7
20260508210952 71 124 2.6 2.6 0.00 0.00 0.00 53 1024.9
20260508210449 71 225 0.0 1.7 0.00 0.00 0.00 53 1024.4
20260508205945 71 180 2.6 3.5 0.00 0.00 0.00 53 1024.5
20260508205443 71 172 2.6 4.3 0.00 0.00 0.00 50 1024.6
20260508204939 72 324 1.7 2.6 0.00 0.00 0.00 52 1024.4
20260508204437 72 180 1.7 2.6 0.00 0.00 0.00 53 1024.4
20260508203931 72 187 1.7 3.5 0.00 0.00 0.00 50 1024.6
20260508203428 72 166 1.7 3.5 0.00 0.00 0.00 54 1024.7
20260508202924 72 117 1.7 3.5 0.00 0.00 0.00 51 1024.6
20260508202421 72 180 0.0 3.5 0.00 0.00 0.00 52 1024.9
20260508201918 72 139 1.7 3.5 0.00 0.00 0.00 52 1025.0
20260508201415 72 140 0.0 1.7 0.00 0.00 0.00 48 1025.1
20260508200912 72 192 1.7 3.5 0.00 0.00 0.00 52 1025.4
20260508200409 72 144 0.0 1.7 0.00 0.00 0.00 47 1025.4
20260508195904 72 193 4.3 4.3 0.00 0.00 0.00 47 1025.2
20260508195401 72 103 0.9 2.6 0.00 0.00 0.00 50 1025.0
20260508194857 73 159 1.7 2.6 0.00 0.00 0.00 49 1025.3
20260508194354 73 15 1.7 1.7 0.00 0.00 0.00 47 1025.5
20260508193851 73 198 3.5 4.3 0.00 0.00 0.00 47 1025.3
20260508193348 73 262 0.9 3.5 0.00 0.00 0.00 49 1025.1
20260508192844 73 180 2.6 4.3 0.00 0.00 0.00 52 1025.4
20260508192341 72 78 1.7 3.5 0.00 0.00 0.00 51 1025.5
20260508191838 71 151 0.9 6.1 0.00 0.00 0.00 53 1025.8
20260508191336 72 162 2.6 6.1 0.00 0.00 0.00 53 1025.7
20260508190833 72 251 1.7 4.3 0.00 0.00 0.00 49 1025.9
20260508190329 72 119 1.7 3.5 0.00 0.00 0.00 54 1025.9
20260508185826 72 215 0.9 4.3 0.00 0.00 0.00 50 1025.7
20260508185323 71 180 1.7 3.5 0.00 0.00 0.00 50 1026.0
20260508184820 72 146 1.7 4.3 0.00 0.00 0.00 51 1026.1
20260508184317 71 259 0.0 3.5 0.00 0.00 0.00 48 1026.2
20260508183814 71 287 1.7 5.2 0.00 0.00 0.00 55 1026.1
20260508183311 72 138 2.6 6.1 0.00 0.00 0.00 52 1026.4
20260508182806 72 190 3.5 3.5 0.00 0.00 0.00 54 1026.7
20260508182306 70 124 3.5 7.8 0.00 0.00 0.00 52 1026.5
20260508181759 71 135 6.1 6.1 0.00 0.00 0.00 51 1026.5
20260508181256 70 134 4.3 4.3 0.00 0.00 0.00 52 1026.8
20260508180754 70 127 5.2 8.7 0.00 0.00 0.00 53 1026.5
20260508180250 71 151 3.5 5.2 0.00 0.00 0.00 53 1026.5
20260508175746 71 90 2.6 3.5 0.00 0.00 0.00 49 1026.6
20260508175243 70 127 3.5 5.2 0.00 0.00 0.00 51 1026.8
20260508174741 70 237 1.7 9.6 0.00 0.00 0.00 54 1027.1
20260508174238 71 135 2.6 4.3 0.00 0.00 0.00 52 1027.1
20260508173735 71 205 2.6 5.2 0.00 0.00 0.00 56 1026.9
20260508173231 71 99 0.0 2.6 0.00 0.00 0.00 53 1027.0
20260508172727 70 126 0.9 3.5 0.00 0.00 0.00 50 1027.3
20260508172224 70 208 2.6 6.1 0.00 0.00 0.00 53 1026.7
20260508171721 70 117 1.7 5.2 0.00 0.00 0.00 55 1027.2
20260508171217 70 165 2.6 6.1 0.00 0.00 0.00 55 1027.2
20260508170714 70 194 4.3 6.1 0.00 0.00 0.00 57 1027.3
20260508170212 70 251 2.6 5.2 0.00 0.00 0.00 57 1027.5
20260508165709 69 186 0.9 7.0 0.00 0.00 0.00 58 1027.8
20260508165206 70 186 4.3 7.8 0.00 0.00 0.00 60 1027.7
20260508164702 69 189 4.3 8.7 0.00 0.00 0.00 59 1027.7
20260508164159 69 277 0.9 6.1 0.00 0.00 0.00 60 1027.8
20260508163657 68 124 3.5 6.1 0.00 0.00 0.00 58 1028.0
20260508163154 69 185 2.6 7.0 0.00 0.00 0.00 59 1028.1
20260508162649 69 188 0.0 7.8 0.00 0.00 0.00 62 1028.2
20260508162147 69 203 0.9 5.2 0.00 0.00 0.00 61 1028.1
20260508161644 69 196 5.2 5.2 0.00 0.00 0.00 58 1028.1
20260508161142 68 116 2.6 3.5 0.00 0.00 0.00 59 1028.2
20260508160640 68 139 1.7 7.0 0.00 0.00 0.00 59 1028.2
20260508160137 67 196 7.8 7.8 0.00 0.00 0.00 61 1028.3
20260508155634 67 59 1.7 4.3 0.00 0.00 0.00 58 1028.6
20260508155131 67 90 0.0 4.3 0.00 0.00 0.00 61 1028.5
20260508154628 67 270 0.0 6.1 0.00 0.00 0.00 59 1028.7
20260508154124 67 157 2.6 7.8 0.00 0.00 0.00 61 1028.7
20260508153621 67 180 2.6 6.1 0.00 0.00 0.00 62 1028.6
20260508153118 67 154 3.5 8.7 0.00 0.00 0.00 62 1028.8
20260508152615 66 32 2.6 7.0 0.00 0.00 0.00 59 1028.7
20260508152110 66 180 4.3 7.8 0.00 0.00 0.00 60 1028.9
20260508151607 66 129 6.1 7.8 0.00 0.00 0.00 62 1028.7
20260508151104 66 174 3.5 7.0 0.00 0.00 0.00 62 1028.6
20260508150601 66 108 3.5 6.1 0.00 0.00 0.00 63 1028.6
20260508150057 66 107 2.6 7.0 0.00 0.00 0.00 68 1028.6
20260508145554 66 134 4.3 10.4 0.00 0.00 0.00 66 1028.4
20260508145050 65 135 5.2 8.7 0.00 0.00 0.00 66 1028.6
20260508144548 66 150 7.0 7.8 0.00 0.00 0.00 66 1028.6
20260508144045 64 135 6.1 7.8 0.00 0.00 0.00 65 1028.7
20260508143543 66 115 3.5 11.3 0.00 0.00 0.00 64 1028.6
20260508143039 66 209 0.9 6.1 0.00 0.00 0.00 68 1028.6
20260508142536 65 73 4.3 7.0 0.00 0.00 0.00 68 1028.6
20260508142032 65 96 2.6 7.8 0.00 0.00 0.00 66 1028.8
20260508141529 64 38 2.6 10.4 0.00 0.00 0.00 69 1028.7
20260508141027 64 95 6.1 7.8 0.00 0.00 0.00 69 1029.1
20260508140524 64 101 4.3 7.0 0.00 0.00 0.00 72 1029.0
20260508140020 64 75 3.5 7.0 0.00 0.00 0.00 72 1028.7
20260508135516 63 70 1.7 8.7 0.00 0.00 0.00 71 1028.8
20260508135012 64 81 5.2 7.0 0.00 0.00 0.00 72 1028.6
20260508134509 64 135 2.6 8.7 0.00 0.00 0.00 74 1028.7
20260508134006 63 90 2.6 9.6 0.00 0.00 0.00 77 1028.7
20260508133503 63 109 1.7 4.3 0.00 0.00 0.00 82 1028.6
20260508133000 63 77 3.5 5.2 0.00 0.00 0.00 83 1028.7
20260508132458 62 41 0.0 4.3 0.00 0.00 0.00 83 1028.7
20260508131954 62 104 4.3 6.1 0.00 0.00 0.00 83 1028.6
20260508131449 63 150 5.2 5.2 0.00 0.00 0.00 84 1028.5
20260508130946 62 101 2.6 8.7 0.00 0.00 0.00 83 1028.5
20260508130444 62 112 3.5 7.8 0.00 0.00 0.00 85 1028.2
20260508125939 62 77 2.6 5.2 0.00 0.00 0.00 86 1028.5
20260508125435 62 96 2.6 7.8 0.00 0.00 0.00 90 1028.4
20260508124934 61 120 3.5 7.0 0.00 0.00 0.00 95 1028.2
20260508124431 60 90 2.6 6.1 0.00 0.00 0.00 98 1028.3
20260508123928 59 116 2.6 8.7 0.00 0.00 0.00 99 1028.0
20260508123427 58 92 4.3 7.0 0.00 0.00 0.00 99 1027.8
20260508122923 59 98 1.7 3.5 0.00 0.00 0.00 99 1027.9
20260508122420 58 87 2.6 4.3 0.00 0.00 0.00 99 1028.1
20260508121917 58 90 1.7 4.3 0.00 0.00 0.00 99 1028.2
20260508121415 57 81 4.3 6.1 0.00 0.00 0.00 99 1027.7
20260508120913 57 110 2.6 4.3 0.00 0.00 0.00 99 1027.5
20260508120410 57 90 3.5 4.3 0.00 0.00 0.00 99 1028.0
20260508115908 56 76 2.6 4.3 0.00 0.00 0.00 99 1027.7
20260508115406 56 97 2.6 3.5 0.00 0.00 0.00 99 1027.8
20260508114901 56 104 2.6 2.6 0.00 0.00 0.00 99 1027.5
20260508114359 55 41 0.0 1.7 0.00 0.00 0.00 99 1027.7
20260508113855 54 54 0.9 1.7 0.00 0.00 0.00 99 1027.4
20260508113353 54 63 0.9 1.7 0.00 0.00 0.00 99 1027.4
20260508112850 54 57 0.0 1.7 0.00 0.00 0.00 99 1027.1
20260508112347 54 78 0.0 2.6 0.00 0.00 0.00 99 1027.1
20260508111843 53 55 2.6 2.6 0.00 0.00 0.00 99 1026.9
20260508111340 53 20 0.9 2.6 0.00 0.00 0.00 99 1026.6
20260508110838 52 26 1.7 1.7 0.00 0.00 0.00 99 1026.8
20260508110335 52 52 1.7 2.6 0.00 0.00 0.00 99 1026.6
20260508105835 52 66 1.7 1.7 0.00 0.00 0.00 99 1026.5
20260508105332 52 60 1.7 2.6 0.00 0.00 0.00 99 1026.5
20260508104829 52 75 1.7 1.7 0.00 0.00 0.00 99 1026.6
20260508104325 53 33 1.7 2.6 0.00 0.00 0.00 99 1026.4
20260508103823 53 40 1.7 2.6 0.00 0.00 0.00 99 1026.3
20260508103320 53 77 0.9 2.6 0.00 0.00 0.00 99 1026.3
20260508102817 53 71 0.9 1.7 0.00 0.00 0.00 99 1026.3
20260508102315 53 97 0.9 0.9 0.00 0.00 0.00 99 1026.1
20260508101812 53 4 1.7 2.6 0.00 0.00 0.00 99 1026.0
20260508101310 53 24 1.7 2.6 0.00 0.00 0.00 99 1025.9
20260508100807 54 30 1.7 2.6 0.00 0.00 0.00 99 1025.7
20260508100306 53 19 1.7 1.7 0.00 0.00 0.00 99 1025.6
20260508095801 53 9 1.7 2.6 0.00 0.00 0.00 99 1025.7
20260508095259 53 10 0.0 1.7 0.00 0.00 0.00 99 1025.5
20260508094755 53 49 1.7 2.6 0.00 0.00 0.00 99 1025.4
20260508094252 53 74 0.0 1.7 0.00 0.00 0.00 99 1025.5
20260508093749 53 48 1.7 2.6 0.00 0.00 0.00 99 1025.7
20260508093247 53 66 0.9 2.6 0.00 0.00 0.00 99 1025.4
20260508092743 54 40 2.6 2.6 0.00 0.00 0.00 99 1025.5
20260508092242 54 49 1.7 1.7 0.00 0.00 0.00 99 1025.5
20260508091740 54 48 1.7 1.7 0.00 0.00 0.00 99 1025.5
20260508091236 55 48 1.7 1.7 0.00 0.00 0.00 99 1025.2
20260508090734 54 90 0.0 1.7 0.00 0.00 0.00 99 1025.1
20260508090232 54 51 0.0 2.6 0.00 0.00 0.00 99 1025.2
20260508085727 54 38 1.7 1.7 0.00 0.00 0.00 99 1024.9
20260508085225 54 26 0.9 2.6 0.00 0.00 0.00 99 1025.3
20260508084720 54 57 1.7 1.7 0.00 0.00 0.00 99 1025.1
20260508084218 54 26 1.7 1.7 0.00 0.00 0.00 99 1025.1
20260508083715 54 53 1.7 1.7 0.00 0.00 0.00 99 1025.2
20260508083213 54 42 2.6 3.5 0.00 0.00 0.00 99 1025.2
20260508082708 54 52 1.7 2.6 0.00 0.00 0.00 99 1025.3
20260508082206 54 53 0.0 2.6 0.00 0.00 0.00 99 1025.1
20260508081703 54 32 0.9 2.6 0.00 0.00 0.00 99 1024.9
20260508081159 55 38 1.7 2.6 0.00 0.00 0.00 99 1025.2
20260508080657 55 21 1.7 1.7 0.00 0.00 0.00 99 1024.9
20260508080155 55 24 1.7 1.7 0.00 0.00 0.00 99 1024.7
20260508075651 54 36 1.7 2.6 0.00 0.00 0.00 99 1024.8
20260508075148 55 69 0.9 1.7 0.00 0.00 0.00 99 1025.0
20260508074646 55 30 1.7 2.6 0.00 0.00 0.00 99 1025.0
20260508074143 55 53 0.0 1.7 0.00 0.00 0.00 99 1024.9
20260508073639 55 57 1.7 1.7 0.00 0.00 0.00 99 1025.0
20260508073137 55 59 0.0 1.7 0.00 0.00 0.00 99 1024.9
20260508072633 55 40 1.7 1.7 0.00 0.00 0.00 99 1024.9
20260508072130 55 29 0.0 1.7 0.00 0.00 0.00 99 1025.1
20260508071628 56 105 0.9 2.6 0.00 0.00 0.00 98 1024.8
20260508071126 56 48 1.7 1.7 0.00 0.00 0.00 98 1024.9
20260508070623 56 33 1.7 1.7 0.00 0.00 0.00 98 1024.9
20260508070122 56 41 0.0 1.7 0.00 0.00 0.00 97 1025.0
20260508065618 57 66 0.0 1.7 0.00 0.00 0.00 97 1024.8
20260508065116 57 15 0.0 1.7 0.00 0.00 0.00 97 1024.6
20260508064614 57 28 1.7 2.6 0.00 0.00 0.00 97 1024.6
20260508064112 57 35 0.9 1.7 0.00 0.00 0.00 96 1024.5
20260508063609 57 20 0.0 1.7 0.00 0.00 0.00 96 1024.7
20260508063107 57 48 1.7 1.7 0.00 0.00 0.00 96 1024.6
20260508062604 58 17 1.7 1.7 0.00 0.00 0.00 95 1024.6
20260508062100 58 7 0.9 1.7 0.00 0.00 0.00 95 1024.6
20260508061558 58 352 0.0 1.7 0.00 0.00 0.00 95 1024.3
20260508061055 58 354 0.9 1.7 0.00 0.00 0.00 94 1024.4
20260508060552 58 352 0.0 0.9 0.00 0.00 0.00 94 1024.5
20260508060049 59 0 0.0 1.7 0.00 0.00 0.00 93 1024.6
20260508055544 59 0 0.0 0.9 0.00 0.00 0.00 93 1024.5
20260508055042 59 57 1.7 1.7 0.00 0.00 0.00 92 1024.7
20260508054538 59 32 1.7 2.6 0.00 0.00 0.00 92 1024.6
20260508054035 59 350 1.7 3.5 0.00 0.00 0.00 92 1024.4
20260508053532 59 24 1.7 1.7 0.00 0.00 0.00 91 1024.6
20260508053031 59 40 1.7 2.6 0.00 0.00 0.00 91 1024.6
20260508052527 59 23 1.7 2.6 0.00 0.00 0.00 91 1024.8
20260508052024 59 7 0.0 0.9 0.00 0.00 0.00 90 1024.9
20260508051520 59 18 0.0 0.9 0.00 0.00 0.00 90 1024.6
20260508051015 59 23 1.7 1.7 0.00 0.00 0.00 90 1024.8
20260508050512 59 23 2.6 2.6 0.00 0.00 0.00 89 1024.5
20260508050010 59 8 1.7 1.7 0.00 0.00 0.00 89 1024.5
20260508045506 59 49 1.7 2.6 0.00 0.00 0.00 89 1024.4
20260508045004 59 6 2.6 2.6 0.00 0.00 0.00 88 1024.5
20260508044501 60 74 0.9 0.9 0.00 0.00 0.00 88 1024.4
20260508043956 60 32 0.0 3.5 0.00 0.00 0.00 88 1024.5
20260508043453 60 6 2.6 3.5 0.00 0.00 0.00 89 1024.4
20260508042949 60 357 2.6 3.5 0.00 0.00 0.00 89 1024.4
20260508042448 60 0 2.6 5.2 0.00 0.00 0.00 90 1024.4
20260508041944 60 5 0.9 1.7 0.00 0.00 0.00 90 1024.2
20260508041441 61 30 1.7 2.6 0.00 0.00 0.00 89 1024.2
20260508040937 61 35 0.9 1.7 0.00 0.00 0.00 88 1024.1
20260508040435 62 32 1.7 2.6 0.00 0.00 0.00 87 1024.2
20260508035932 62 4 0.0 2.6 0.00 0.00 0.00 85 1024.1
20260508035429 63 85 1.7 2.6 0.00 0.00 0.00 84 1024.1
20260508034926 63 59 0.0 4.3 0.00 0.00 0.00 83 1023.9
20260508034423 63 28 1.7 3.5 0.00 0.00 0.00 83 1024.0
20260508033920 63 40 0.0 1.7 0.00 0.00 0.00 83 1024.1
20260508033418 64 45 1.7 1.7 0.00 0.00 0.00 83 1023.8
20260508032915 64 327 1.7 2.6 0.00 0.00 0.00 82 1024.0
20260508032412 65 78 0.0 2.6 0.00 0.00 0.00 81 1023.9
20260508031909 65 54 0.0 2.6 0.00 0.00 0.00 81 1023.8
20260508031407 65 340 0.0 2.6 0.00 0.00 0.00 80 1024.0
20260508030902 65 19 1.7 4.3 0.00 0.00 0.00 79 1023.9
20260508030359 66 41 0.0 3.5 0.00 0.00 0.00 79 1023.7
20260508025857 66 325 4.3 4.3 0.00 0.00 0.00 79 1023.6
20260508025353 66 43 4.3 4.3 0.00 0.00 0.00 79 1023.7
20260508024850 66 61 2.6 5.2 0.00 0.00 0.00 78 1023.5
20260508024347 66 65 6.1 6.1 0.00 0.00 0.00 78 1023.3
20260508023843 66 0 0.9 6.1 0.00 0.00 0.00 79 1023.3
20260508023340 66 90 1.7 3.5 0.00 0.00 0.00 80 1023.2
20260508022837 67 75 1.7 3.5 0.00 0.00 0.00 80 1023.1
20260508022332 67 61 0.0 7.8 0.00 0.00 0.00 79 1023.3
20260508021830 67 94 1.7 4.3 0.00 0.00 0.00 79 1023.0
20260508021326 67 134 4.3 4.3 0.00 0.00 0.00 80 1023.1
20260508020822 68 4 0.0 4.3 0.00 0.00 0.00 80 1022.8
20260508020320 68 104 5.2 6.1 0.00 0.00 0.00 81 1022.8
20260508015817 68 93 2.6 3.5 0.00 0.00 0.00 82 1022.4
20260508015314 68 72 4.3 15.6 0.00 0.00 0.00 82 1022.6
20260508014811 68 139 1.7 7.8 0.00 0.00 0.00 81 1022.4
20260508014308 69 0 0.0 4.3 0.00 0.00 0.00 81 1022.2
20260508013803 69 163 2.6 7.0 0.00 0.00 0.00 81 1022.0